createdAt,value
2017-01-27T00:00:13.328Z,8
2017-01-27T00:01:27.144Z,12
2017-01-27T00:02:40.966Z,12
2017-01-27T00:03:54.175Z,12
2017-01-27T00:05:07.388Z,12
2017-01-27T00:06:20.599Z,12
2017-01-27T00:07:34.419Z,12
2017-01-27T00:08:48.238Z,12
2017-01-27T00:10:02.085Z,12
2017-01-27T00:11:15.937Z,12
2017-01-27T00:12:43.625Z,12
2017-01-27T00:13:56.835Z,8
2017-01-27T00:15:10.655Z,12
2017-01-27T00:16:24.480Z,8
2017-01-27T00:17:37.700Z,12
2017-01-27T00:18:51.512Z,12
2017-01-27T00:20:05.338Z,12
2017-01-27T00:21:18.549Z,12
2017-01-27T00:22:32.563Z,12
2017-01-27T00:23:45.830Z,12
2017-01-27T00:24:59.687Z,12
2017-01-27T00:26:12.929Z,8
2017-01-27T00:27:26.784Z,8
2017-01-27T00:28:40.866Z,12
2017-01-27T00:29:54.681Z,12
2017-01-27T00:31:07.896Z,12
2017-01-27T00:32:21.720Z,12
2017-01-27T00:33:35.787Z,12
2017-01-27T00:34:49.603Z,12
2017-01-27T00:36:02.215Z,12
2017-01-27T00:37:16.041Z,12
2017-01-27T00:38:29.857Z,12
2017-01-27T00:39:43.929Z,12
2017-01-27T00:40:57.747Z,12
2017-01-27T00:42:25.438Z,12
2017-01-27T00:43:39.263Z,12
2017-01-27T00:44:52.675Z,12
2017-01-27T00:46:06.497Z,12
2017-01-27T00:47:20.336Z,12
2017-01-27T00:48:34.161Z,12
2017-01-27T00:49:47.982Z,12
2017-01-27T00:51:01.796Z,12
2017-01-27T00:52:15.613Z,12
2017-01-27T00:53:28.832Z,12
2017-01-27T00:54:42.666Z,12
2017-01-27T00:55:56.732Z,4
2017-01-27T00:57:10.562Z,12
2017-01-27T00:58:23.792Z,12
2017-01-27T00:59:37.645Z,12
2017-01-27T01:00:51.836Z,12
2017-01-27T01:02:19.539Z,12
2017-01-27T01:03:33.372Z,12
2017-01-27T01:04:46.606Z,12
2017-01-27T01:06:00.786Z,12
2017-01-27T01:07:14.027Z,12
2017-01-27T01:08:26.660Z,12
2017-01-27T01:09:39.884Z,12
2017-01-27T01:10:53.473Z,12
2017-01-27T01:12:06.704Z,12
2017-01-27T01:13:19.941Z,12
2017-01-27T01:14:33.171Z,12
2017-01-27T01:15:47.016Z,12
2017-01-27T01:17:01.218Z,12
2017-01-27T01:18:14.469Z,12
2017-01-27T01:19:28.311Z,12
2017-01-27T01:20:42.193Z,12
2017-01-27T01:21:56.034Z,12
2017-01-27T01:23:09.882Z,12
2017-01-27T01:24:23.729Z,12
2017-01-27T01:25:37.577Z,12
2017-01-27T01:26:51.461Z,12
2017-01-27T01:28:05.317Z,12
2017-01-27T01:29:19.153Z,12
2017-01-27T01:30:32.371Z,12
2017-01-27T01:32:00.418Z,12
2017-01-27T01:33:14.242Z,12
2017-01-27T01:34:28.060Z,12
2017-01-27T01:35:41.876Z,12
2017-01-27T01:36:55.694Z,12
2017-01-27T01:38:08.296Z,12
2017-01-27T01:39:22.116Z,12
2017-01-27T01:40:35.932Z,12
2017-01-27T01:41:49.748Z,12
2017-01-27T01:43:02.964Z,12
2017-01-27T01:44:16.782Z,12
2017-01-27T01:45:29.388Z,12
2017-01-27T01:46:43.209Z,12
2017-01-27T01:47:57.381Z,12
2017-01-27T01:49:11.647Z,12
2017-01-27T01:50:25.603Z,12
2017-01-27T01:51:39.420Z,12
2017-01-27T01:52:53.241Z,12
2017-01-27T01:54:07.063Z,12
2017-01-27T01:55:20.883Z,12
2017-01-27T01:56:34.705Z,12
2017-01-27T01:57:48.528Z,12
2017-01-27T01:59:02.346Z,12
2017-01-27T02:00:15.561Z,12
2017-01-27T02:01:28.781Z,12
2017-01-27T02:02:42.618Z,12
2017-01-27T02:03:56.441Z,12
2017-01-27T02:05:09.661Z,12
2017-01-27T02:06:23.497Z,12
2017-01-27T02:07:36.730Z,12
2017-01-27T02:08:49.978Z,12
2017-01-27T02:10:03.223Z,12
2017-01-27T02:11:17.065Z,12
2017-01-27T02:12:30.886Z,12
2017-01-27T02:13:58.582Z,12
2017-01-27T02:15:11.912Z,12
2017-01-27T02:16:25.736Z,12
2017-01-27T02:17:39.566Z,12
2017-01-27T02:18:53.399Z,12
2017-01-27T02:20:07.471Z,12
2017-01-27T02:22:48.394Z,12
2017-01-27T02:24:02.227Z,12
2017-01-27T02:25:14.836Z,12
2017-01-27T02:26:28.665Z,12
2017-01-27T02:27:42.485Z,12
2017-01-27T02:28:56.314Z,12
2017-01-27T02:30:09.550Z,12
2017-01-27T02:31:23.376Z,12
2017-01-27T02:32:51.078Z,12
2017-01-27T02:34:04.915Z,12
2017-01-27T02:35:19.125Z,12
2017-01-27T02:36:32.945Z,12
2017-01-27T02:37:46.769Z,12
2017-01-27T02:39:00.615Z,12
2017-01-27T02:40:13.845Z,12
2017-01-27T02:41:27.078Z,12
2017-01-27T02:42:40.920Z,8
2017-01-27T02:43:54.753Z,12
2017-01-27T02:45:08.583Z,12
2017-01-27T02:46:21.399Z,12
2017-01-27T02:47:35.239Z,12
2017-01-27T02:48:48.484Z,12
2017-01-27T02:50:01.719Z,12
2017-01-27T02:51:15.205Z,12
2017-01-27T02:52:29.058Z,12
2017-01-27T02:53:42.895Z,12
2017-01-27T02:54:56.740Z,12
2017-01-27T02:56:10.587Z,12
2017-01-27T02:57:24.771Z,12
2017-01-27T02:58:38.609Z,12
2017-01-27T02:59:52.460Z,12
2017-01-27T03:01:06.299Z,12
2017-01-27T03:02:34.011Z,12
2017-01-27T03:03:47.865Z,12
2017-01-27T03:05:01.714Z,12
2017-01-27T03:06:14.958Z,12
2017-01-27T03:07:28.816Z,12
2017-01-27T03:08:42.669Z,12
2017-01-27T03:09:56.522Z,12
2017-01-27T03:11:10.378Z,12
2017-01-27T03:12:23.624Z,12
2017-01-27T03:13:37.822Z,12
2017-01-27T03:14:51.675Z,12
2017-01-27T03:17:32.829Z,12
2017-01-27T03:18:46.712Z,8
2017-01-27T03:20:00.589Z,12
2017-01-27T03:21:13.828Z,12
2017-01-27T03:22:27.072Z,12
2017-01-27T03:23:40.924Z,12
2017-01-27T03:24:54.167Z,12
2017-01-27T03:26:08.021Z,12
2017-01-27T03:27:21.870Z,12
2017-01-27T03:28:35.717Z,12
2017-01-27T03:29:49.570Z,12
2017-01-27T03:31:02.816Z,12
2017-01-27T03:32:16.696Z,12
2017-01-27T03:33:29.938Z,12
2017-01-27T03:34:43.361Z,12
2017-01-27T03:35:57.187Z,12
2017-01-27T03:37:11.046Z,12
2017-01-27T03:38:24.880Z,12
2017-01-27T03:39:38.717Z,12
2017-01-27T03:40:51.333Z,12
2017-01-27T03:42:05.152Z,12
2017-01-27T03:43:32.839Z,12
2017-01-27T03:44:47.015Z,12
2017-01-27T03:46:00.837Z,12
2017-01-27T03:47:14.059Z,12
2017-01-27T03:48:27.274Z,12
2017-01-27T03:49:41.440Z,12
2017-01-27T03:50:55.262Z,12
2017-01-27T03:52:08.474Z,12
2017-01-27T03:53:22.296Z,12
2017-01-27T03:54:36.122Z,12
2017-01-27T03:55:49.334Z,12
2017-01-27T03:57:02.551Z,12
2017-01-27T03:58:16.380Z,12
2017-01-27T03:59:29.599Z,12
2017-01-27T04:00:43.640Z,12
2017-01-27T04:01:56.871Z,12
2017-01-27T04:04:38.393Z,12
2017-01-27T04:05:52.214Z,12
2017-01-27T04:07:05.442Z,12
2017-01-27T04:08:18.055Z,12
2017-01-27T04:09:31.300Z,12
2017-01-27T04:10:45.131Z,12
2017-01-27T04:11:59.204Z,12
2017-01-27T04:13:13.038Z,12
2017-01-27T04:14:26.863Z,12
2017-01-27T04:15:40.086Z,12
2017-01-27T04:16:54.169Z,12
2017-01-27T04:18:08.025Z,12
2017-01-27T04:19:21.243Z,12
2017-01-27T04:20:34.473Z,12
2017-01-27T04:21:48.316Z,12
2017-01-27T04:23:02.146Z,12
2017-01-27T04:24:16.025Z,12
2017-01-27T04:25:29.857Z,12
2017-01-27T04:26:43.714Z,12
2017-01-27T04:27:57.573Z,12
2017-01-27T04:29:11.403Z,12
2017-01-27T04:30:24.639Z,12
2017-01-27T04:31:38.481Z,12
2017-01-27T04:32:52.535Z,12
2017-01-27T04:34:05.772Z,12
2017-01-27T04:35:32.876Z,12
2017-01-27T04:36:46.716Z,12
2017-01-27T04:38:00.570Z,12
2017-01-27T04:39:13.814Z,12
2017-01-27T04:40:27.662Z,12
2017-01-27T04:41:41.517Z,12
2017-01-27T04:42:55.367Z,12
2017-01-27T04:44:09.225Z,12
2017-01-27T04:45:23.074Z,12
2017-01-27T04:46:36.927Z,12
2017-01-27T04:47:50.167Z,12
2017-01-27T04:49:04.268Z,12
2017-01-27T04:50:16.903Z,12
2017-01-27T04:51:30.144Z,12
2017-01-27T04:52:44.000Z,12
2017-01-27T04:53:57.597Z,12
2017-01-27T04:55:10.842Z,12
2017-01-27T04:56:24.119Z,12
2017-01-27T04:57:37.964Z,12
2017-01-27T04:58:51.811Z,12
2017-01-27T05:00:05.251Z,12
2017-01-27T05:01:19.102Z,12
2017-01-27T05:02:32.950Z,12
2017-01-27T05:03:46.797Z,12
2017-01-27T05:05:00.651Z,12
2017-01-27T05:06:14.500Z,12
2017-01-27T05:07:28.351Z,12
2017-01-27T05:08:42.197Z,12
2017-01-27T05:09:55.637Z,12
2017-01-27T05:11:09.487Z,12
2017-01-27T05:12:22.114Z,12
2017-01-27T05:13:35.961Z,12
2017-01-27T05:16:17.522Z,12
2017-01-27T05:17:31.372Z,12
2017-01-27T05:18:59.085Z,12
2017-01-27T05:20:12.330Z,12
2017-01-27T05:21:25.575Z,12
2017-01-27T05:22:38.821Z,8
2017-01-27T05:23:52.668Z,12
2017-01-27T05:25:06.517Z,12
2017-01-27T05:26:20.109Z,12
2017-01-27T05:27:33.956Z,12
2017-01-27T05:28:48.009Z,12
2017-01-27T05:30:01.857Z,12
2017-01-27T05:31:15.295Z,12
2017-01-27T05:32:43.008Z,12
2017-01-27T05:33:56.855Z,12
2017-01-27T05:35:10.704Z,12
2017-01-27T05:36:24.756Z,12
2017-01-27T05:37:38.631Z,12
2017-01-27T05:38:52.479Z,12
2017-01-27T05:40:06.326Z,12
2017-01-27T05:41:19.843Z,12
2017-01-27T05:42:32.483Z,12
2017-01-27T05:43:45.727Z,12
2017-01-27T05:45:13.440Z,12
2017-01-27T05:46:27.542Z,12
2017-01-27T05:49:09.102Z,12
2017-01-27T05:50:22.345Z,12
2017-01-27T05:51:49.701Z,12
2017-01-27T05:53:03.548Z,12
2017-01-27T05:54:16.793Z,12
2017-01-27T05:55:44.501Z,12
2017-01-27T05:56:58.603Z,12
2017-01-27T05:58:12.453Z,12
2017-01-27T05:59:26.302Z,12
2017-01-27T06:00:39.541Z,12
2017-01-27T06:01:53.743Z,8
2017-01-27T06:03:07.013Z,8
2017-01-27T06:04:20.868Z,8
2017-01-27T06:05:34.719Z,8
2017-01-27T06:06:48.573Z,12
2017-01-27T06:08:02.674Z,12
2017-01-27T06:09:16.518Z,8
2017-01-27T06:10:29.154Z,8
2017-01-27T06:11:43.002Z,12
2017-01-27T06:12:55.985Z,8
2017-01-27T06:14:09.842Z,8
2017-01-27T06:15:23.080Z,8
2017-01-27T06:16:36.320Z,8
2017-01-27T06:17:49.562Z,8
2017-01-27T06:19:02.803Z,8
2017-01-27T06:20:16.656Z,12
2017-01-27T06:21:30.505Z,12
2017-01-27T06:22:44.354Z,12
2017-01-27T06:23:57.808Z,8
2017-01-27T06:25:11.665Z,8
2017-01-27T06:26:25.522Z,8
2017-01-27T06:27:39.377Z,8
2017-01-27T06:28:53.227Z,12
2017-01-27T06:30:07.076Z,12
2017-01-27T06:31:20.937Z,8
2017-01-27T06:32:34.790Z,8
2017-01-27T06:33:48.642Z,12
2017-01-27T06:35:01.883Z,8
2017-01-27T06:36:15.121Z,12
2017-01-27T06:37:28.970Z,8
2017-01-27T06:38:42.209Z,8
2017-01-27T06:39:56.262Z,8
2017-01-27T06:41:09.506Z,8
2017-01-27T06:42:23.357Z,8
2017-01-27T06:43:35.990Z,12
2017-01-27T06:44:49.845Z,12
2017-01-27T06:46:03.697Z,8
2017-01-27T06:47:16.941Z,8
2017-01-27T06:48:30.789Z,12
2017-01-27T06:49:44.642Z,8
2017-01-27T06:50:58.491Z,12
2017-01-27T06:52:11.739Z,8
2017-01-27T06:53:25.586Z,8
2017-01-27T06:54:39.437Z,8
2017-01-27T06:55:53.540Z,8
2017-01-27T06:57:07.393Z,8
2017-01-27T06:58:20.024Z,8
2017-01-27T06:59:32.670Z,8
2017-01-27T07:00:46.530Z,8
2017-01-27T07:01:59.516Z,12
2017-01-27T07:03:12.151Z,8
2017-01-27T07:04:25.999Z,8
2017-01-27T07:05:39.239Z,12
2017-01-27T07:06:53.340Z,8
2017-01-27T07:08:07.225Z,12
2017-01-27T07:09:21.077Z,8
2017-01-27T07:10:34.925Z,8
2017-01-27T07:11:48.777Z,8
2017-01-27T07:13:02.977Z,8
2017-01-27T07:14:16.825Z,8
2017-01-27T07:15:30.675Z,8
2017-01-27T07:16:44.521Z,8
2017-01-27T07:17:58.112Z,8
2017-01-27T07:19:11.356Z,8
2017-01-27T07:20:25.207Z,8
2017-01-27T07:21:39.057Z,8
2017-01-27T07:22:52.908Z,8
2017-01-27T07:24:06.764Z,8
2017-01-27T07:25:33.868Z,8
2017-01-27T07:26:47.110Z,8
2017-01-27T07:28:00.549Z,8
2017-01-27T07:29:13.790Z,12
2017-01-27T07:30:27.647Z,12
2017-01-27T07:31:41.499Z,12
2017-01-27T07:32:55.356Z,12
2017-01-27T07:34:09.211Z,12
2017-01-27T07:35:23.064Z,12
2017-01-27T07:36:36.914Z,12
2017-01-27T07:37:50.765Z,12
2017-01-27T07:39:03.400Z,8
2017-01-27T07:41:44.959Z,12
2017-01-27T07:42:58.808Z,8
2017-01-27T07:44:11.443Z,12
2017-01-27T07:45:25.291Z,12
2017-01-27T07:46:39.156Z,12
2017-01-27T07:47:53.010Z,8
2017-01-27T07:49:06.861Z,12
2017-01-27T07:50:20.713Z,12
2017-01-27T07:51:33.955Z,12
2017-01-27T07:52:47.229Z,12
2017-01-27T07:54:00.471Z,12
2017-01-27T07:55:14.319Z,12
2017-01-27T07:56:27.555Z,12
2017-01-27T07:57:40.797Z,12
2017-01-27T07:58:54.641Z,8
2017-01-27T08:00:08.488Z,12
2017-01-27T08:01:21.732Z,12
2017-01-27T08:02:35.583Z,12
2017-01-27T08:03:49.433Z,12
2017-01-27T08:05:02.678Z,12
2017-01-27T08:06:15.317Z,8
2017-01-27T08:07:29.164Z,12
2017-01-27T08:08:42.404Z,12
2017-01-27T08:09:56.254Z,8
2017-01-27T08:11:10.355Z,12
2017-01-27T08:12:24.204Z,12
2017-01-27T08:13:37.457Z,12
2017-01-27T08:14:51.309Z,12
2017-01-27T08:16:05.155Z,12
2017-01-27T08:17:31.911Z,12
2017-01-27T08:18:45.154Z,12
2017-01-27T08:19:57.787Z,12
2017-01-27T08:21:11.638Z,12
2017-01-27T08:22:24.877Z,12
2017-01-27T08:23:38.725Z,12
2017-01-27T08:24:52.601Z,12
2017-01-27T08:26:05.849Z,12
2017-01-27T08:28:59.445Z,12
2017-01-27T08:30:27.154Z,12
2017-01-27T08:31:41.003Z,12
2017-01-27T08:32:55.204Z,12
2017-01-27T08:34:08.456Z,12
2017-01-27T08:35:21.722Z,12
2017-01-27T08:36:35.572Z,16
2017-01-27T08:37:49.675Z,16
2017-01-27T08:39:02.313Z,12
2017-01-27T08:40:14.949Z,16
2017-01-27T08:41:28.795Z,16
2017-01-27T08:42:42.642Z,16
2017-01-27T08:44:10.361Z,20
2017-01-27T08:45:37.469Z,20
2017-01-27T08:46:51.321Z,20
2017-01-27T08:48:04.562Z,20
2017-01-27T08:49:18.413Z,12
2017-01-27T08:50:32.269Z,12
2017-01-27T08:51:46.125Z,12
2017-01-27T08:52:59.364Z,16
2017-01-27T08:54:12.345Z,20
2017-01-27T08:55:26.231Z,24
2017-01-27T08:56:40.082Z,28
2017-01-27T08:57:53.931Z,28
2017-01-27T08:59:07.169Z,32
2017-01-27T09:00:20.407Z,36
2017-01-27T09:01:34.254Z,36
2017-01-27T09:02:48.101Z,40
2017-01-27T09:04:01.954Z,40
2017-01-27T09:05:14.587Z,48
2017-01-27T09:07:56.143Z,52
2017-01-27T09:09:08.776Z,56
2017-01-27T09:10:21.656Z,60
2017-01-27T09:11:34.937Z,64
2017-01-27T09:12:48.190Z,72
2017-01-27T09:14:02.040Z,76
2017-01-27T09:16:57.478Z,92
2017-01-27T09:18:10.721Z,96
2017-01-27T09:19:23.980Z,100
2017-01-27T09:20:37.518Z,108
2017-01-27T09:21:51.367Z,108
2017-01-27T09:23:05.220Z,112
2017-01-27T09:24:18.467Z,116
2017-01-27T09:25:32.318Z,120
2017-01-27T09:26:46.164Z,132
2017-01-27T09:27:58.794Z,144
2017-01-27T09:29:12.061Z,152
2017-01-27T09:30:25.915Z,160
2017-01-27T09:31:39.402Z,172
2017-01-27T09:32:53.251Z,180
2017-01-27T09:34:07.104Z,196
2017-01-27T09:35:19.738Z,204
2017-01-27T09:36:33.937Z,216
2017-01-27T09:37:47.183Z,224
2017-01-27T09:39:00.436Z,232
2017-01-27T09:40:14.284Z,244
2017-01-27T09:41:28.131Z,260
2017-01-27T09:42:42.178Z,280
2017-01-27T09:43:54.809Z,292
2017-01-27T09:45:08.662Z,304
2017-01-27T09:46:22.509Z,312
2017-01-27T09:47:36.660Z,328
2017-01-27T09:48:50.510Z,344
2017-01-27T09:50:02.536Z,352
2017-01-27T09:51:15.782Z,396
2017-01-27T09:52:29.019Z,388
2017-01-27T09:53:42.271Z,440
2017-01-27T09:54:55.516Z,432
2017-01-27T09:56:09.367Z,416
2017-01-27T09:57:23.217Z,436
2017-01-27T09:58:36.461Z,472
2017-01-27T09:59:50.347Z,496
2017-01-27T10:01:03.597Z,472
2017-01-27T10:02:16.866Z,476
2017-01-27T10:03:30.728Z,500
2017-01-27T10:04:43.983Z,528
2017-01-27T10:05:57.265Z,564
2017-01-27T10:07:10.520Z,572
2017-01-27T10:08:24.433Z,552
2017-01-27T10:09:37.706Z,548
2017-01-27T10:10:51.566Z,588
2017-01-27T10:12:04.872Z,584
2017-01-27T10:13:18.826Z,592
2017-01-27T10:14:32.184Z,596
2017-01-27T10:15:46.321Z,600
2017-01-27T10:17:00.361Z,640
2017-01-27T10:18:13.920Z,668
2017-01-27T10:19:28.093Z,664
2017-01-27T10:20:42.437Z,652
2017-01-27T10:21:56.041Z,636
2017-01-27T10:23:09.571Z,600
2017-01-27T10:24:23.137Z,604
2017-01-27T10:25:37.304Z,632
2017-01-27T10:27:05.264Z,664
2017-01-27T10:28:17.597Z,700
2017-01-27T10:29:31.803Z,776
2017-01-27T10:30:46.426Z,780
2017-01-27T10:32:00.880Z,828
2017-01-27T10:33:14.828Z,840
2017-01-27T10:34:28.677Z,812
2017-01-27T10:35:42.531Z,884
2017-01-27T10:36:56.584Z,824
2017-01-27T10:38:09.830Z,848
2017-01-27T10:39:23.676Z,776
2017-01-27T10:40:51.147Z,752
2017-01-27T10:42:05.086Z,736
2017-01-27T10:43:18.540Z,684
2017-01-27T10:44:32.601Z,668
2017-01-27T10:45:45.932Z,628
2017-01-27T10:46:59.600Z,608
2017-01-27T10:48:13.597Z,588
2017-01-27T10:49:27.654Z,560
2017-01-27T10:50:55.563Z,536
2017-01-27T10:52:09.287Z,512
2017-01-27T10:55:03.856Z,496
2017-01-27T10:56:16.765Z,504
2017-01-27T10:57:31.166Z,556
2017-01-27T10:58:45.322Z,612
2017-01-27T10:59:59.499Z,624
2017-01-27T11:01:13.120Z,644
2017-01-27T11:02:27.069Z,656
2017-01-27T11:03:40.676Z,696
2017-01-27T11:04:54.850Z,696
2017-01-27T11:06:09.071Z,700
2017-01-27T11:07:21.893Z,692
2017-01-27T11:08:35.781Z,672
2017-01-27T11:09:49.025Z,628
2017-01-27T11:11:02.511Z,648
2017-01-27T11:12:14.744Z,724
2017-01-27T11:13:28.633Z,824
2017-01-27T11:14:42.456Z,912
2017-01-27T11:15:56.298Z,1016
2017-01-27T11:17:10.129Z,1064
2017-01-27T11:18:37.304Z,1048
2017-01-27T11:19:50.540Z,1012
2017-01-27T11:21:03.807Z,948
2017-01-27T11:22:17.816Z,892
2017-01-27T11:23:31.681Z,868
2017-01-27T11:24:45.795Z,936
2017-01-27T11:25:59.757Z,1020
2017-01-27T11:27:27.013Z,1092
2017-01-27T11:28:39.710Z,1128
2017-01-27T11:29:53.629Z,1120
2017-01-27T11:32:34.823Z,1088
2017-01-27T11:33:48.409Z,1032
2017-01-27T11:35:01.771Z,992
2017-01-27T11:36:15.239Z,984
2017-01-27T11:37:29.205Z,992
2017-01-27T11:38:42.797Z,1036
2017-01-27T11:41:38.258Z,916
2017-01-27T11:42:52.201Z,952
2017-01-27T11:44:05.438Z,936
2017-01-27T11:45:18.070Z,944
2017-01-27T11:46:31.924Z,916
2017-01-27T11:47:45.761Z,944
2017-01-27T11:48:59.011Z,972
2017-01-27T11:50:12.254Z,1004
2017-01-27T11:51:26.102Z,1016
2017-01-27T11:52:39.335Z,1032
2017-01-27T11:53:53.203Z,984
2017-01-27T11:55:06.445Z,928
2017-01-27T11:56:17.265Z,908
2017-01-27T11:57:31.113Z,912
2017-01-27T11:58:44.964Z,892
2017-01-27T12:00:12.072Z,868
2017-01-27T12:01:25.921Z,888
2017-01-27T12:02:39.772Z,944
2017-01-27T12:03:53.625Z,980
2017-01-27T12:05:07.735Z,1008
2017-01-27T12:06:20.374Z,1016
2017-01-27T12:07:33.617Z,1004
2017-01-27T12:08:46.246Z,1008
2017-01-27T12:10:00.089Z,1048
2017-01-27T12:11:13.339Z,1080
2017-01-27T12:12:27.209Z,1084
2017-01-27T12:13:41.056Z,1008
2017-01-27T12:14:54.909Z,936
2017-01-27T12:16:09.117Z,908
2017-01-27T12:17:22.359Z,904
2017-01-27T12:18:36.216Z,868
2017-01-27T12:19:50.062Z,848
2017-01-27T12:21:03.904Z,820
2017-01-27T12:22:17.770Z,836
2017-01-27T12:23:31.677Z,920
2017-01-27T12:24:44.934Z,936
2017-01-27T12:25:58.756Z,1008
2017-01-27T12:27:12.835Z,1196
2017-01-27T12:28:25.440Z,2216
2017-01-27T12:29:38.679Z,2180
2017-01-27T12:30:51.895Z,2364
2017-01-27T12:32:05.129Z,2164
2017-01-27T12:33:18.364Z,2420
2017-01-27T12:34:32.195Z,1592
2017-01-27T12:35:46.018Z,1696
2017-01-27T12:36:59.236Z,1760
2017-01-27T12:38:13.066Z,1316
2017-01-27T12:39:26.890Z,1420
2017-01-27T12:40:40.713Z,1560
2017-01-27T12:42:08.032Z,2488
2017-01-27T12:43:22.650Z,2384
2017-01-27T12:44:50.672Z,2320
2017-01-27T12:46:04.100Z,2456
2017-01-27T12:47:18.250Z,1324
2017-01-27T12:48:32.201Z,2636
2017-01-27T12:49:46.048Z,1152
2017-01-27T12:50:59.472Z,1352
2017-01-27T12:52:12.764Z,1164
2017-01-27T12:53:26.606Z,1224
2017-01-27T12:54:40.440Z,1488
2017-01-27T12:56:07.541Z,1788
2017-01-27T12:57:21.409Z,1376
2017-01-27T12:59:02.984Z,1680
2017-01-27T13:00:16.928Z,1456
2017-01-27T13:01:31.023Z,1624
2017-01-27T13:02:44.940Z,2756
2017-01-27T13:03:58.389Z,2624
2017-01-27T13:05:12.347Z,1600
2017-01-27T13:06:25.655Z,1676
2017-01-27T13:09:06.709Z,1184
2017-01-27T13:10:19.956Z,1176
2017-01-27T13:11:33.830Z,1324
2017-01-27T13:12:47.663Z,1392
2017-01-27T13:14:01.488Z,1412
2017-01-27T13:15:14.705Z,1476
2017-01-27T13:16:28.525Z,1292
2017-01-27T13:19:10.039Z,1132
2017-01-27T13:20:23.266Z,1188
2017-01-27T13:21:37.100Z,1292
2017-01-27T13:22:51.016Z,1344
2017-01-27T13:24:05.088Z,1416
2017-01-27T13:25:18.916Z,1632
2017-01-27T13:26:32.736Z,1768
2017-01-27T13:27:46.559Z,1604
2017-01-27T13:29:00.383Z,1348
2017-01-27T13:30:14.203Z,1192
2017-01-27T13:31:27.422Z,1076
2017-01-27T13:32:40.665Z,960
2017-01-27T13:33:54.539Z,896
2017-01-27T13:35:07.153Z,816
2017-01-27T13:36:20.980Z,704
2017-01-27T13:37:34.804Z,656
2017-01-27T13:38:48.631Z,632
2017-01-27T13:40:02.664Z,620
2017-01-27T13:41:15.881Z,624
2017-01-27T13:42:29.707Z,648
2017-01-27T13:43:42.930Z,636
2017-01-27T13:44:56.753Z,668
2017-01-27T13:46:24.448Z,688
2017-01-27T13:47:38.274Z,736
2017-01-27T13:48:52.093Z,828
2017-01-27T13:50:05.923Z,964
2017-01-27T13:51:20.104Z,1140
2017-01-27T13:52:47.792Z,1420
2017-01-27T13:54:01.628Z,1980
2017-01-27T13:55:14.506Z,2956
2017-01-27T13:56:42.410Z,2532
2017-01-27T13:57:56.238Z,1720
2017-01-27T13:59:10.061Z,1868
2017-01-27T14:00:23.882Z,2124
2017-01-27T14:01:37.096Z,2672
2017-01-27T14:02:51.589Z,3620
2017-01-27T14:04:32.858Z,1920
2017-01-27T14:05:47.526Z,1392
2017-01-27T14:07:01.235Z,1172
2017-01-27T14:08:15.135Z,1024
2017-01-27T14:11:10.825Z,984
2017-01-27T14:12:25.011Z,976
2017-01-27T14:13:38.844Z,948
2017-01-27T14:14:52.686Z,908
2017-01-27T14:16:06.532Z,856
2017-01-27T14:17:21.415Z,828
2017-01-27T14:18:35.257Z,788
2017-01-27T14:19:49.120Z,752
2017-01-27T14:21:02.979Z,712
2017-01-27T14:22:16.401Z,668
2017-01-27T14:23:30.670Z,656
2017-01-27T14:24:44.740Z,656
2017-01-27T14:25:58.894Z,688
2017-01-27T14:27:13.002Z,744
2017-01-27T14:28:41.185Z,844
2017-01-27T14:30:23.353Z,904
2017-01-27T14:31:37.542Z,892
2017-01-27T14:32:51.673Z,848
2017-01-27T14:34:05.826Z,804
2017-01-27T14:36:46.270Z,792
2017-01-27T14:38:00.404Z,848
2017-01-27T14:39:14.454Z,948
2017-01-27T14:41:56.342Z,1244
2017-01-27T14:43:10.381Z,1348
2017-01-27T14:44:23.194Z,1264
2017-01-27T14:45:36.554Z,1212
2017-01-27T14:46:50.636Z,952
2017-01-27T14:48:04.049Z,776
2017-01-27T14:49:16.891Z,724
2017-01-27T14:50:44.761Z,660
2017-01-27T14:51:58.830Z,508
2017-01-27T14:53:12.747Z,348
2017-01-27T14:54:26.825Z,232
2017-01-27T14:55:53.933Z,212
2017-01-27T14:57:07.169Z,208
2017-01-27T14:58:21.001Z,240
2017-01-27T14:59:34.476Z,264
2017-01-27T15:00:47.707Z,256
2017-01-27T15:02:01.531Z,244
2017-01-27T15:03:14.779Z,216
2017-01-27T15:04:28.612Z,204
2017-01-27T15:05:42.440Z,212
2017-01-27T15:06:56.273Z,244
2017-01-27T15:08:10.127Z,268
2017-01-27T15:09:23.961Z,284
2017-01-27T15:10:37.535Z,304
2017-01-27T15:11:50.772Z,332
2017-01-27T15:13:18.475Z,364
2017-01-27T15:14:32.361Z,364
2017-01-27T15:16:00.519Z,364
2017-01-27T15:18:57.789Z,344
2017-01-27T15:20:11.888Z,324
2017-01-27T15:21:39.799Z,296
2017-01-27T15:23:35.242Z,284
2017-01-27T15:26:16.483Z,284
2017-01-27T15:27:30.303Z,280
2017-01-27T15:28:44.119Z,264
2017-01-27T15:29:57.942Z,268
2017-01-27T15:31:11.159Z,272
2017-01-27T15:32:24.378Z,284
2017-01-27T15:33:38.211Z,304
2017-01-27T15:34:52.039Z,316
2017-01-27T15:36:05.859Z,336
2017-01-27T15:37:19.084Z,364
2017-01-27T15:38:32.904Z,400
2017-01-27T15:39:47.109Z,440
2017-01-27T15:41:01.023Z,488
2017-01-27T15:42:14.855Z,528
2017-01-27T15:43:42.192Z,564
2017-01-27T15:45:09.907Z,608
2017-01-27T15:46:23.728Z,632
2017-01-27T15:47:51.623Z,664
2017-01-27T15:49:05.441Z,712
2017-01-27T15:50:18.655Z,672
2017-01-27T15:51:32.476Z,492
2017-01-27T15:52:45.689Z,488
2017-01-27T15:53:58.907Z,528
2017-01-27T15:55:26.605Z,576
2017-01-27T15:56:40.423Z,600
2017-01-27T15:57:54.248Z,604
2017-01-27T15:59:07.466Z,668
2017-01-27T16:00:20.078Z,732
2017-01-27T16:01:33.897Z,712
2017-01-27T16:02:47.724Z,712
2017-01-27T16:04:01.548Z,744
2017-01-27T16:05:14.766Z,732
2017-01-27T16:06:28.590Z,676
2017-01-27T16:07:42.415Z,672
2017-01-27T16:08:56.239Z,696
2017-01-27T16:10:10.118Z,716
2017-01-27T16:11:23.941Z,664
2017-01-27T16:12:37.770Z,556
2017-01-27T16:13:51.806Z,468
2017-01-27T16:15:19.496Z,416
2017-01-27T16:16:33.317Z,388
2017-01-27T16:17:47.151Z,368
2017-01-27T16:19:01.751Z,328
2017-01-27T16:20:14.977Z,288
2017-01-27T16:21:28.806Z,244
2017-01-27T16:22:42.039Z,192
2017-01-27T16:23:55.876Z,168
2017-01-27T16:25:08.493Z,160
2017-01-27T16:26:21.120Z,160
2017-01-27T16:27:34.972Z,168
2017-01-27T16:28:48.790Z,192
2017-01-27T16:30:02.609Z,192
2017-01-27T16:31:16.437Z,196
2017-01-27T16:32:30.259Z,204
2017-01-27T16:33:44.085Z,212
2017-01-27T16:34:57.912Z,220
2017-01-27T16:36:25.606Z,232
2017-01-27T16:37:39.428Z,248
2017-01-27T16:38:53.248Z,268
2017-01-27T16:40:06.463Z,292
2017-01-27T16:41:19.068Z,328
2017-01-27T16:42:32.883Z,348
2017-01-27T16:43:46.704Z,352
2017-01-27T16:46:42.091Z,316
2017-01-27T16:47:55.910Z,280
2017-01-27T16:49:09.725Z,252
2017-01-27T16:50:23.542Z,200
2017-01-27T16:53:05.055Z,180
2017-01-27T16:54:18.268Z,168
2017-01-27T16:55:32.466Z,148
2017-01-27T16:56:46.289Z,164
2017-01-27T16:58:00.111Z,188
2017-01-27T16:59:13.935Z,208
2017-01-27T17:00:41.819Z,224
2017-01-27T17:01:55.039Z,268
2017-01-27T17:03:08.859Z,320
2017-01-27T17:04:22.068Z,360
2017-01-27T17:05:35.278Z,424
2017-01-27T17:06:49.454Z,464
2017-01-27T17:08:17.141Z,552
2017-01-27T17:09:30.965Z,568
2017-01-27T17:10:44.426Z,592
2017-01-27T17:11:57.646Z,536
2017-01-27T17:13:11.468Z,416
2017-01-27T17:14:25.291Z,336
2017-01-27T17:15:39.109Z,316
2017-01-27T17:17:06.795Z,304
2017-01-27T17:18:19.406Z,220
2017-01-27T17:19:33.231Z,220
2017-01-27T17:20:47.051Z,236
2017-01-27T17:22:14.778Z,232
2017-01-27T17:23:28.018Z,236
2017-01-27T17:24:40.627Z,284
2017-01-27T17:25:54.444Z,292
2017-01-27T17:29:03.711Z,400
2017-01-27T17:30:16.921Z,408
2017-01-27T17:31:30.744Z,396
2017-01-27T17:32:44.564Z,392
2017-01-27T17:33:58.387Z,396
2017-01-27T17:35:12.204Z,388
2017-01-27T17:36:25.421Z,364
2017-01-27T17:37:38.632Z,312
2017-01-27T17:38:52.451Z,236
2017-01-27T17:41:34.236Z,144
2017-01-27T17:42:47.462Z,156
2017-01-27T17:44:01.275Z,180
2017-01-27T17:45:14.488Z,204
2017-01-27T17:46:28.506Z,244
2017-01-27T17:47:42.360Z,308
2017-01-27T17:48:56.175Z,368
2017-01-27T17:50:09.991Z,428
2017-01-27T17:51:22.596Z,480
2017-01-27T17:52:36.412Z,540
2017-01-27T17:53:49.620Z,584
2017-01-27T17:55:03.439Z,604
2017-01-27T17:56:17.259Z,624
2017-01-27T17:57:31.089Z,656
2017-01-27T17:58:44.908Z,688
2017-01-27T17:59:58.121Z,684